createdAt,value
2019-03-24T00:00:25.896Z,980.79
2019-03-24T00:03:55.924Z,980.86
2019-03-24T00:07:25.996Z,980.8
2019-03-24T00:10:56.106Z,980.86
2019-03-24T00:14:26.347Z,980.53
2019-03-24T00:17:58.156Z,980.62
2019-03-24T00:21:28.208Z,980.1
2019-03-24T00:24:58.326Z,979.97
2019-03-24T00:28:28.468Z,979.84
2019-03-24T00:31:58.616Z,979.72
2019-03-24T00:35:28.798Z,979.52
2019-03-24T00:38:58.836Z,979.97
2019-03-24T00:42:28.904Z,980.35
2019-03-24T00:45:58.986Z,981
2019-03-24T00:49:29.106Z,981.71
2019-03-24T00:52:59.206Z,982.19
2019-03-24T00:56:29.310Z,982.61
2019-03-24T00:59:59.446Z,982.86
2019-03-24T01:03:29.526Z,983.28
2019-03-24T01:06:59.628Z,983.43
2019-03-24T01:10:29.716Z,983.3
2019-03-24T01:13:59.947Z,983.16
2019-03-24T01:17:30.166Z,983.23
2019-03-24T01:21:01.357Z,983.15
2019-03-24T01:24:31.456Z,983.31
2019-03-24T01:28:01.567Z,983.56
2019-03-24T01:31:31.669Z,983.56
2019-03-24T01:35:02.291Z,983.72
2019-03-24T01:38:32.303Z,983.86
2019-03-24T01:42:02.513Z,983.88
2019-03-24T01:45:32.617Z,983.24
2019-03-24T01:49:02.907Z,982.97
2019-03-24T01:52:33.037Z,982.51
2019-03-24T01:56:03.268Z,982.04
2019-03-24T01:59:33.457Z,981.67
2019-03-24T02:00:16.967Z,981.61
2019-03-24T02:03:47.239Z,981.32
2019-03-24T02:07:17.328Z,980.84
2019-03-24T02:10:47.601Z,980.71
2019-03-24T02:14:17.730Z,980.52
2019-03-24T02:17:47.837Z,980.21
2019-03-24T02:21:18.020Z,980.15
2019-03-24T02:24:48.108Z,980.48
2019-03-24T02:28:18.057Z,980.84
2019-03-24T02:31:48.178Z,981.08
2019-03-24T02:35:18.248Z,981.23
2019-03-24T02:38:48.374Z,981.01
2019-03-24T02:42:18.548Z,980.67
2019-03-24T02:45:48.649Z,980.41
2019-03-24T02:49:18.644Z,980.22
2019-03-24T02:52:48.805Z,980.22
2019-03-24T02:56:18.886Z,980.18
2019-03-24T02:59:48.957Z,979.87
2019-03-24T03:03:19.198Z,979.68
2019-03-24T03:06:49.431Z,979.84
2019-03-24T03:10:19.542Z,980.08
2019-03-24T03:13:49.628Z,980.14
2019-03-24T03:17:19.717Z,980.06
2019-03-24T03:20:49.870Z,979.81
2019-03-24T03:24:20.959Z,979.72
2019-03-24T03:27:51.232Z,978.98
2019-03-24T03:31:21.340Z,978.54
2019-03-24T03:34:51.428Z,978.2
2019-03-24T03:38:21.501Z,977.86
2019-03-24T03:41:51.628Z,977.62
2019-03-24T03:45:25.538Z,977.85
2019-03-24T03:48:55.728Z,977.77
2019-03-24T03:52:25.879Z,977.79
2019-03-24T03:55:55.936Z,977.37
2019-03-24T03:59:26.035Z,977.11
2019-03-24T04:00:30.048Z,977.16
2019-03-24T04:04:00.040Z,976.93
2019-03-24T04:07:30.103Z,976.83
2019-03-24T04:11:00.216Z,976.81
2019-03-24T04:14:30.308Z,977.01
2019-03-24T04:18:00.511Z,977.16
2019-03-24T04:21:30.567Z,977.42
2019-03-24T04:25:01.702Z,977.5
2019-03-24T04:28:31.818Z,977.82
2019-03-24T04:32:02.069Z,978.21
2019-03-24T04:35:32.167Z,978.41
2019-03-24T04:39:03.782Z,978.28
2019-03-24T04:42:33.927Z,978.14
2019-03-24T04:46:04.072Z,978.36
2019-03-24T04:49:34.148Z,978.8
2019-03-24T04:53:04.318Z,979.14
2019-03-24T04:56:34.347Z,979.17
2019-03-24T05:00:05.421Z,979.38
2019-03-24T05:03:35.417Z,979.99
2019-03-24T05:07:05.777Z,980.05
2019-03-24T05:10:35.787Z,980.11
2019-03-24T05:14:05.917Z,980.07
2019-03-24T05:17:36.122Z,980.4
2019-03-24T05:21:06.297Z,980.64
2019-03-24T05:24:36.398Z,981.26
2019-03-24T05:28:07.408Z,981.64
2019-03-24T05:31:37.477Z,982.21
2019-03-24T05:35:07.688Z,982.71
2019-03-24T05:38:37.768Z,983.24
2019-03-24T05:42:07.968Z,984
2019-03-24T05:45:37.958Z,985.85
2019-03-24T05:49:08.098Z,987.68
2019-03-24T05:52:38.249Z,989.2
2019-03-24T05:56:08.379Z,990.07
2019-03-24T05:59:38.441Z,991.02
2019-03-24T06:00:16.288Z,991.22
2019-03-24T06:03:46.428Z,991.52
2019-03-24T06:07:16.438Z,992
2019-03-24T06:10:46.668Z,992.4
2019-03-24T06:14:16.738Z,993.35
2019-03-24T06:17:48.068Z,993.89
2019-03-24T06:21:18.429Z,994.57
2019-03-24T06:24:48.531Z,995.11
2019-03-24T06:28:19.631Z,995.32
2019-03-24T06:31:49.803Z,996.09
2019-03-24T06:35:19.950Z,996.65
2019-03-24T06:38:50.214Z,997.11
2019-03-24T06:42:20.262Z,997.38
2019-03-24T06:45:50.420Z,997.93
2019-03-24T06:49:20.581Z,998.09
2019-03-24T06:52:50.611Z,999.11
2019-03-24T06:56:20.651Z,999.72
2019-03-24T06:59:50.791Z,1000.36
2019-03-24T07:03:20.995Z,1000.81
2019-03-24T07:06:51.142Z,1001.09
2019-03-24T07:10:21.233Z,1001.34
2019-03-24T07:13:51.292Z,1001.55
2019-03-24T07:17:21.382Z,1001.98
2019-03-24T07:20:51.493Z,1002.24
2019-03-24T07:24:21.613Z,1002.63
2019-03-24T07:27:51.786Z,1002.34
2019-03-24T07:31:22.944Z,1002.88
2019-03-24T07:34:53.174Z,1002.86
2019-03-24T07:38:23.315Z,1003.44
2019-03-24T07:41:53.405Z,1003.77
2019-03-24T07:45:23.466Z,1003.84
2019-03-24T07:48:53.684Z,1003.05
2019-03-24T07:52:23.658Z,1001.99
2019-03-24T07:55:53.796Z,1001.93
2019-03-24T07:59:23.796Z,1001.43
2019-03-24T08:00:38.257Z,1001.57
2019-03-24T08:04:08.537Z,1002.17
2019-03-24T08:07:38.599Z,1001.67
2019-03-24T08:11:08.632Z,1001.53
2019-03-24T08:14:38.768Z,1000.83
2019-03-24T08:18:08.978Z,1000.04
2019-03-24T08:21:38.950Z,999.85
2019-03-24T08:25:09.178Z,999.74
2019-03-24T08:28:39.198Z,1000.13
2019-03-24T08:32:10.258Z,1000.64
2019-03-24T08:35:40.337Z,1000.92
2019-03-24T08:39:10.493Z,1001.52
2019-03-24T08:42:40.633Z,1002.06
2019-03-24T08:46:10.722Z,1002.55
2019-03-24T08:49:40.820Z,1002.14
2019-03-24T08:53:10.931Z,1001.9
2019-03-24T08:56:41.010Z,1002.27
2019-03-24T09:00:11.251Z,1002.69
2019-03-24T09:03:41.291Z,1002.82
2019-03-24T09:07:11.353Z,1003.46
2019-03-24T09:10:41.562Z,1003.53
2019-03-24T09:14:11.732Z,1001.9
2019-03-24T09:17:41.982Z,1002.29
2019-03-24T09:21:12.223Z,1002.38
2019-03-24T09:24:42.363Z,1002.21
2019-03-24T09:28:12.504Z,1003.22
2019-03-24T09:31:42.544Z,1003.59
2019-03-24T09:35:13.825Z,1005.24
2019-03-24T09:38:43.964Z,1007.4
2019-03-24T09:42:14.097Z,1009.25
2019-03-24T09:45:44.287Z,1011.04
2019-03-24T09:49:14.466Z,1012.14
2019-03-24T09:52:44.566Z,1013.22
2019-03-24T09:56:14.735Z,1013.85
2019-03-24T09:59:44.897Z,1014.01
2019-03-24T10:00:16.506Z,1014.18
2019-03-24T10:03:46.609Z,1015.4
2019-03-24T10:07:16.597Z,1015.93
2019-03-24T10:10:46.759Z,1016.16
2019-03-24T10:14:16.998Z,1017.34
2019-03-24T10:17:47.169Z,1018.56
2019-03-24T10:21:17.399Z,1019.68
2019-03-24T10:24:47.460Z,1020.06
2019-03-24T10:28:17.637Z,1021.51
2019-03-24T10:31:47.750Z,1022.5
2019-03-24T10:35:18.966Z,1023.46
2019-03-24T10:38:49.071Z,1025.09
2019-03-24T10:42:19.166Z,1024.91
2019-03-24T10:45:49.263Z,1025.08
2019-03-24T10:49:24.890Z,1027.6
2019-03-24T10:52:55.483Z,1028.41
2019-03-24T10:56:25.594Z,1031.34
2019-03-24T10:59:55.725Z,1032.91
2019-03-24T11:03:25.915Z,1032.08
2019-03-24T11:06:56.006Z,1028.54
2019-03-24T11:10:26.026Z,1025.59
2019-03-24T11:13:56.197Z,1023.63
2019-03-24T11:17:26.367Z,1022.39
2019-03-24T11:20:56.459Z,1020.65
2019-03-24T11:24:26.539Z,1019.33
2019-03-24T11:27:56.650Z,1017.36
2019-03-24T11:31:26.840Z,1016
2019-03-24T11:34:56.900Z,1016.81
2019-03-24T11:38:28.040Z,1018.52
2019-03-24T11:41:58.111Z,1018.29
2019-03-24T11:45:28.261Z,1018.83
2019-03-24T11:48:58.356Z,1015.81
2019-03-24T11:52:28.357Z,1016.36
2019-03-24T11:55:58.550Z,1017.49
2019-03-24T11:59:28.606Z,1019.36
2019-03-24T12:00:25.155Z,1019.1
2019-03-24T12:03:55.284Z,1017.71
2019-03-24T12:07:25.395Z,1016.08
2019-03-24T12:10:55.465Z,1014.79
2019-03-24T12:14:25.496Z,1015.15
2019-03-24T12:17:55.635Z,1017.26
2019-03-24T12:21:25.606Z,1018.86
2019-03-24T12:24:55.724Z,1018.37
2019-03-24T12:28:25.826Z,1018.72
2019-03-24T12:31:55.987Z,1020.04
2019-03-24T12:35:26.137Z,1020.2
2019-03-24T12:38:56.288Z,1019.32
2019-03-24T12:42:26.444Z,1020.01
2019-03-24T12:45:56.510Z,1021
2019-03-24T12:49:26.600Z,1020.72
2019-03-24T12:52:56.730Z,1023.33
2019-03-24T12:56:26.870Z,1022.73
2019-03-24T12:59:57.121Z,1024.23
2019-03-24T13:03:27.214Z,1024.49
2019-03-24T13:06:57.362Z,1023.69
2019-03-24T13:10:27.330Z,1024.52
2019-03-24T13:13:57.432Z,1024.68
2019-03-24T13:17:27.513Z,1025.2
2019-03-24T13:20:57.687Z,1025.88
2019-03-24T13:24:27.700Z,1025.64
2019-03-24T13:27:57.923Z,1026.78
2019-03-24T13:31:28.056Z,1028.05
2019-03-24T13:34:58.146Z,1027.09
2019-03-24T13:38:28.277Z,1028.53
2019-03-24T13:41:59.747Z,1027.77
2019-03-24T13:45:29.939Z,1028.78
2019-03-24T13:49:00.164Z,1029.18
2019-03-24T13:52:30.261Z,1028.42
2019-03-24T13:56:00.421Z,1027.98
2019-03-24T13:59:30.400Z,1029.49
2019-03-24T14:00:18.880Z,1029.19
2019-03-24T14:03:49.041Z,1027.13
2019-03-24T14:07:19.215Z,1025.45
2019-03-24T14:10:49.363Z,1026.42
2019-03-24T14:14:19.347Z,1027.74
2019-03-24T14:17:49.514Z,1026.12
2019-03-24T14:21:19.694Z,1026.01
2019-03-24T14:24:49.826Z,1026.62
2019-03-24T14:28:19.965Z,1026.4
2019-03-24T14:31:50.197Z,1026.82
2019-03-24T14:35:20.296Z,1026.39
2019-03-24T14:38:50.507Z,1027.05
2019-03-24T14:42:21.478Z,1027.54
2019-03-24T14:45:51.599Z,1025.66
2019-03-24T14:49:21.650Z,1024.78
2019-03-24T14:52:51.840Z,1024.73
2019-03-24T14:56:21.961Z,1024.05
2019-03-24T14:59:52.121Z,1025.39
2019-03-24T15:03:22.251Z,1027.06
2019-03-24T15:06:52.425Z,1025.65
2019-03-24T15:10:22.525Z,1026.03
2019-03-24T15:13:52.603Z,1025.51
2019-03-24T15:17:22.714Z,1024.25
2019-03-24T15:20:52.873Z,1023.54
2019-03-24T15:24:22.995Z,1023.57
2019-03-24T15:27:53.176Z,1023.92
2019-03-24T15:31:23.426Z,1023.41
2019-03-24T15:34:53.613Z,1023.97
2019-03-24T15:38:23.688Z,1023.31
2019-03-24T15:41:53.938Z,1023.52
2019-03-24T15:45:25.869Z,1022.85
2019-03-24T15:48:55.982Z,1020.14
2019-03-24T15:52:26.129Z,1018.58
2019-03-24T15:55:56.170Z,1018.01
2019-03-24T15:59:26.220Z,1018.37
2019-03-24T16:00:38.631Z,1017.94
2019-03-24T16:04:08.731Z,1016.49
2019-03-24T16:07:38.912Z,1013.42
2019-03-24T16:11:08.985Z,1010.58
2019-03-24T16:14:39.013Z,1009.22
2019-03-24T16:18:09.203Z,1007.71
2019-03-24T16:21:39.244Z,1005.58
2019-03-24T16:25:09.464Z,1003.97
2019-03-24T16:28:39.624Z,1002.36
2019-03-24T16:32:09.705Z,1001.24
2019-03-24T16:35:39.855Z,1000.6
2019-03-24T16:39:09.985Z,1000.03
2019-03-24T16:42:40.086Z,999.25
2019-03-24T16:46:11.276Z,998.73
2019-03-24T16:49:41.386Z,997.94
2019-03-24T16:53:11.551Z,996.85
2019-03-24T16:56:41.677Z,996.34
2019-03-24T17:00:12.072Z,996.07
2019-03-24T17:03:42.177Z,995.45
2019-03-24T17:07:12.357Z,995.02
2019-03-24T17:10:42.537Z,994.91
2019-03-24T17:14:12.730Z,994.9
2019-03-24T17:17:42.856Z,994.47
2019-03-24T17:21:13.030Z,994.56
2019-03-24T17:24:43.229Z,994.22
2019-03-24T17:28:13.329Z,993.83
2019-03-24T17:31:43.393Z,993.86
2019-03-24T17:35:13.532Z,992.99
2019-03-24T17:38:43.533Z,992.11
2019-03-24T17:42:13.624Z,991.94
2019-03-24T17:45:43.753Z,991.89
2019-03-24T17:49:14.984Z,991.83
2019-03-24T17:52:45.043Z,991.64
2019-03-24T17:56:15.129Z,991.16
2019-03-24T17:59:45.488Z,990.83
2019-03-24T18:00:42.425Z,990.82
2019-03-24T18:04:12.504Z,991.06
2019-03-24T18:07:42.540Z,991.28
2019-03-24T18:11:12.686Z,990.97
2019-03-24T18:14:42.798Z,990.82
2019-03-24T18:18:12.909Z,990.58
2019-03-24T18:21:43.031Z,990.55
2019-03-24T18:25:13.317Z,989.82
2019-03-24T18:28:43.480Z,989.34
2019-03-24T18:32:13.625Z,989.4
2019-03-24T18:35:43.850Z,989.47
2019-03-24T18:39:13.956Z,989.42
2019-03-24T18:42:44.089Z,989.47
2019-03-24T18:46:14.304Z,989.26
2019-03-24T18:49:44.399Z,988.61
2019-03-24T18:53:14.493Z,988.35
2019-03-24T18:56:48.408Z,987.98
2019-03-24T19:00:19.213Z,987.75
2019-03-24T19:03:49.367Z,987.82
2019-03-24T19:07:19.433Z,987.82
2019-03-24T19:10:49.636Z,987.88
2019-03-24T19:14:19.792Z,987.75
2019-03-24T19:17:49.946Z,987.82
2019-03-24T19:21:20.041Z,987.98
2019-03-24T19:24:50.174Z,987.59
2019-03-24T19:28:20.259Z,987.03
2019-03-24T19:31:50.464Z,987.02
2019-03-24T19:35:20.619Z,986.96
2019-03-24T19:38:51.473Z,986.55
2019-03-24T19:42:21.608Z,985.96
2019-03-24T19:45:51.732Z,985.63
2019-03-24T19:49:21.797Z,985.89
2019-03-24T19:52:52.886Z,985.97
2019-03-24T19:56:23.156Z,986.31
2019-03-24T19:59:53.271Z,986.63
2019-03-24T20:00:15.901Z,986.59
2019-03-24T20:03:45.965Z,987.06
2019-03-24T20:07:16.029Z,987.26
2019-03-24T20:10:46.174Z,986.92
2019-03-24T20:14:16.198Z,986.76
2019-03-24T20:17:46.363Z,986.41
2019-03-24T20:21:16.509Z,986.49
2019-03-24T20:24:46.603Z,986.59
2019-03-24T20:28:16.639Z,986.87
2019-03-24T20:31:46.752Z,986.56
2019-03-24T20:35:16.824Z,986.76
2019-03-24T20:38:46.942Z,986.91
2019-03-24T20:42:17.090Z,987.13
2019-03-24T20:45:47.284Z,987.23
2019-03-24T20:49:17.401Z,987.12
2019-03-24T20:52:47.521Z,987.12
2019-03-24T20:56:18.564Z,987.23
2019-03-24T20:59:48.595Z,987.1
2019-03-24T21:03:18.654Z,987.18
2019-03-24T21:06:48.911Z,987.22
2019-03-24T21:10:18.964Z,987.12
2019-03-24T21:13:49.019Z,987.05
2019-03-24T21:17:19.020Z,987.1
2019-03-24T21:20:49.214Z,987.12
2019-03-24T21:24:19.385Z,987.03
2019-03-24T21:27:49.523Z,986.99
2019-03-24T21:31:19.572Z,987.17
2019-03-24T21:34:49.752Z,987.26
2019-03-24T21:38:19.871Z,987.04
2019-03-24T21:41:50.032Z,987.13
2019-03-24T21:45:20.190Z,987.14
2019-03-24T21:48:50.480Z,986.93
2019-03-24T21:52:20.444Z,986.63
2019-03-24T21:55:50.688Z,986.31
2019-03-24T21:59:22.438Z,986.3
2019-03-24T22:00:30.448Z,986.36
2019-03-24T22:04:00.601Z,985.94
2019-03-24T22:07:30.666Z,985.84
2019-03-24T22:11:00.865Z,985.7
2019-03-24T22:14:30.943Z,985.63
2019-03-24T22:18:01.205Z,985.57
2019-03-24T22:21:31.325Z,985.7
2019-03-24T22:25:01.486Z,985.59
2019-03-24T22:28:31.673Z,985.38
2019-03-24T22:32:01.762Z,985.2
2019-03-24T22:35:31.693Z,985.02
2019-03-24T22:39:03.741Z,984.62
2019-03-24T22:42:33.754Z,984.85
2019-03-24T22:46:03.959Z,984.62
2019-03-24T22:49:34.035Z,984.57
2019-03-24T22:53:04.208Z,984.54
2019-03-24T22:56:34.337Z,984.53
2019-03-24T23:00:08.747Z,984.33
2019-03-24T23:03:38.866Z,983.46
2019-03-24T23:07:09.135Z,983.39
2019-03-24T23:10:39.184Z,983.29
2019-03-24T23:14:09.378Z,983.49
2019-03-24T23:17:39.613Z,983.62
2019-03-24T23:21:09.793Z,983.61
2019-03-24T23:24:39.932Z,983.38
2019-03-24T23:28:10.131Z,983.61
2019-03-24T23:31:40.296Z,983.05
2019-03-24T23:35:10.637Z,983.08
2019-03-24T23:38:40.720Z,983.33
2019-03-24T23:42:10.889Z,983.53
2019-03-24T23:45:40.878Z,983.67
2019-03-24T23:49:11.078Z,983.57
2019-03-24T23:52:41.198Z,983.46
2019-03-24T23:56:11.326Z,983.51
2019-03-24T23:59:41.294Z,983.45
